Estación de Casablanca

Ultimos registro cada 15 minutos 48
Estación Fecha / Hora Temperatura Humedad Lluvia Velocidad Dirección Radiación Presion
48 Casablanca 08-05-2026 11:45 18,5 53,2 0 0,5 229 561,9 990,3
47 Casablanca 08-05-2026 11:30 18,2 57 0 0,5 215 548,1 990,4
46 Casablanca 08-05-2026 11:15 17,3 60 0 0,5 220 530,6 990,5
45 Casablanca 08-05-2026 11:00 16,9 61,7 0 0,5 206 508,1 990,6
44 Casablanca 08-05-2026 10:45 16,3 66,4 0 0 160 481,9 991
43 Casablanca 08-05-2026 10:30 14,9 73,2 0 0 115 451,9 991
42 Casablanca 08-05-2026 10:15 13,1 77,7 0 0 128 419,4 991
41 Casablanca 08-05-2026 10:00 11 85,2 0 0 133 386,9 990,9
40 Casablanca 08-05-2026 09:45 10,1 92 0 0 101 350,6 990,9
39 Casablanca 08-05-2026 09:30 8,6 98 0 0 100 310,6 990,8
38 Casablanca 08-05-2026 09:15 7,5 99,8 0 0 102 271,9 990,8
37 Casablanca 08-05-2026 09:00 7 100 0 0 104 233,1 991,1
36 Casablanca 08-05-2026 08:45 5,9 100 0 0 104 155,6 991
35 Casablanca 08-05-2026 08:30 4,9 100 0 0 104 149,4 991,4
34 Casablanca 08-05-2026 08:15 3,9 100 0 0 110 83,1 991,1
33 Casablanca 08-05-2026 08:00 3,8 100 0 0 143 59,4 991
32 Casablanca 08-05-2026 07:45 3,3 100 0 0 142 14,4 991,3
31 Casablanca 08-05-2026 07:30 2,2 100 0 0 125 3,1 991,3
30 Casablanca 08-05-2026 07:15 1,4 100 0 0 124 0,6 991,4
29 Casablanca 08-05-2026 07:00 2,8 100 0 0 124 0,6 991,2
28 Casablanca 08-05-2026 06:45 2,3 100 0 0 122 0,6 991,4
27 Casablanca 08-05-2026 06:30 1,8 100 0 0 121 0,6 991,3
26 Casablanca 08-05-2026 06:15 2,4 100 0 0 121 0,6 991,4
25 Casablanca 08-05-2026 06:00 2,3 100 0 0 114 0,6 991,4
24 Casablanca 08-05-2026 05:45 2,9 100 0 0 170 0,6 991
23 Casablanca 08-05-2026 05:30 2 99,9 0 0 126 0,6 990,9
22 Casablanca 08-05-2026 05:15 2 100 0 0 126 0,6 991,1
21 Casablanca 08-05-2026 05:00 2,3 99,8 0 0 126 0,6 990,8
20 Casablanca 08-05-2026 04:45 2,8 99,9 0 0 126 0,6 990,7
19 Casablanca 08-05-2026 04:30 2,6 99,6 0 0 126 0,6 990,5
18 Casablanca 08-05-2026 04:15 3,1 99,5 0 0 126 0,6 990,9
17 Casablanca 08-05-2026 04:00 4,2 98,7 0 0 126 0,6 991,3
16 Casablanca 08-05-2026 03:45 4,6 99,1 0 0 126 0,6 991,6
15 Casablanca 08-05-2026 03:30 4,8 98,9 0 0 126 0,6 991,6
14 Casablanca 08-05-2026 03:15 4,7 98,7 0 0 126 0,6 991,8
13 Casablanca 08-05-2026 03:00 5,3 98,5 0 0 126 0,6 991,9
12 Casablanca 08-05-2026 02:45 5,5 98,4 0 0 126 0,6 991,9
11 Casablanca 08-05-2026 02:30 5,9 98,2 0 0 126 0,6 992
10 Casablanca 08-05-2026 02:15 6,1 97,4 0 0 126 0,6 992,1
9 Casablanca 08-05-2026 02:00 6,2 97,5 0 0 126 0,6 992,4
8 Casablanca 08-05-2026 01:45 6,9 97,4 0 0 160 0,6 992,5
7 Casablanca 08-05-2026 01:30 6,2 96,5 0 0 140 0,6 992,5
6 Casablanca 08-05-2026 01:15 6,5 96 0 0 140 0,6 992,5
5 Casablanca 08-05-2026 01:00 7 95,2 0 0 140 0,6 992,8
4 Casablanca 08-05-2026 00:45 7,3 94,2 0 0 181 0,6 992,9
3 Casablanca 08-05-2026 00:30 8 93,7 0 0 197 0,6 992,8
2 Casablanca 08-05-2026 00:15 8,2 92,6 0 0 211 0,6 993,1
1 Casablanca 08-05-2026 00:00 8,8 91,5 0 0 236 0,6 993